Time;durP1;ratioP1;P1;durP2;ratioP2;P2;SDS_P1;SDS_P2;PMS_P1;PMS_P2;Temp;Humidity;BMP_temperature;BMP_pressure;BME280_temperature;BME280_humidity;BME280_pressure;Samples;Min_cycle;Max_cycle;Signal;HPM_P1;HPM_P2
2023/04/14 00:01:14;;;;;;;5.53;2.20;;;;;;;8.31;63.84;99134.00;5058969;28;20044;-76
2023/04/14 00:03:39;;;;;;;4.35;1.35;;;;;;;8.26;63.68;99135.59;5058560;28;21610;-75
2023/04/14 00:06:04;;;;;;;9.80;1.70;;;;;;;8.19;64.39;99143.19;5059286;28;20044;-77
2023/04/14 00:08:30;;;;;;;4.75;1.60;;;;;;;8.13;64.71;99142.34;5059327;28;20647;-76
2023/04/14 00:10:55;;;;;;;9.68;1.63;;;;;;;8.08;64.26;99141.47;5058215;28;20118;-77
2023/04/14 00:13:21;;;;;;;17.17;3.85;;;;;;;8.01;65.03;99147.16;5059304;28;20486;-77
2023/04/14 00:15:46;;;;;;;7.23;2.10;;;;;;;8.01;65.32;99142.56;5058262;28;20131;-76
2023/04/14 00:18:11;;;;;;;6.53;1.90;;;;;;;8.06;65.08;99150.72;5059013;28;20262;-75
2023/04/14 00:20:36;;;;;;;7.13;2.40;;;;;;;8.09;65.12;99151.28;5059320;28;20114;-76
2023/04/14 00:23:02;;;;;;;10.35;2.35;;;;;;;8.13;64.99;99149.66;5058573;28;20261;-76
2023/04/14 00:25:27;;;;;;;6.35;1.67;;;;;;;8.12;65.28;99159.72;5058578;28;20111;-75
2023/04/14 00:27:52;;;;;;;7.07;1.73;;;;;;;8.09;65.00;99151.28;5058197;28;20501;-75
2023/04/14 00:30:17;;;;;;;9.80;2.77;;;;;;;8.06;65.08;99155.31;5058594;28;20385;-76
2023/04/14 00:32:43;;;;;;;5.57;2.30;;;;;;;8.06;65.38;99153.44;5057844;28;20359;-76
2023/04/14 00:35:08;;;;;;;5.43;2.07;;;;;;;8.04;65.29;99152.88;5058218;28;20273;-75
2023/04/14 00:37:33;;;;;;;8.15;2.42;;;;;;;8.01;65.08;99150.72;5058157;28;20344;-75
2023/04/14 00:39:58;;;;;;;5.60;1.77;;;;;;;8.01;65.54;99156.13;5057558;28;20512;-75
2023/04/14 00:42:24;;;;;;;5.33;1.90;;;;;;;8.00;65.05;99162.63;5059450;28;20033;-75
2023/04/14 00:44:50;;;;;;;3.67;1.40;;;;;;;7.99;65.47;99171.88;5062249;28;20848;-76
2023/04/14 00:47:16;;;;;;;10.10;1.77;;;;;;;8.01;65.66;99164.28;5060998;28;21166;-75
2023/04/14 00:49:41;;;;;;;7.70;2.03;;;;;;;8.04;65.49;99166.47;5061770;28;20033;-75
2023/04/14 00:52:07;;;;;;;3.40;1.58;;;;;;;8.11;65.04;99171.66;5061879;28;20405;-76
2023/04/14 00:54:33;;;;;;;4.28;1.13;;;;;;;8.11;64.31;99179.81;5061704;28;20037;-75
2023/04/14 00:56:59;;;;;;;11.25;2.28;;;;;;;8.28;64.53;99179.63;5061396;28;20031;-76
2023/04/14 00:59:25;;;;;;;9.25;1.60;;;;;;;8.34;64.37;99174.22;5061142;28;20690;-75
2023/04/14 01:01:50;;;;;;;5.03;1.67;;;;;;;8.41;64.22;99174.78;5062059;28;20033;-82
2023/04/14 01:04:16;;;;;;;7.43;2.07;;;;;;;8.36;63.58;99181.00;5061468;28;20397;-82
2023/04/14 01:06:41;;;;;;;5.40;1.98;;;;;;;8.39;63.96;99168.81;5063796;28;20262;-81
2023/04/14 01:09:08;;;;;;;9.52;2.95;;;;;;;8.45;63.99;99186.75;5062638;28;20430;-82
2023/04/14 01:11:43;;;;;;;8.27;3.17;;;;;;;8.44;63.44;99182.41;5062178;28;21207;-82
2023/04/14 01:14:31;;;;;;;7.40;1.50;;;;;;;8.52;63.57;99183.81;5061597;28;20619;-81
2023/04/14 01:17:08;;;;;;;7.05;2.42;;;;;;;8.55;63.39;99183.28;5062159;28;20021;-81
2023/04/14 01:19:56;;;;;;;8.20;2.20;;;;;;;8.49;63.36;99190.59;5062644;28;20036;-82
2023/04/14 01:22:28;;;;;;;12.15;2.08;;;;;;;8.43;63.90;99191.66;5061936;28;20086;-81
2023/04/14 01:25:30;;;;;;;10.65;2.85;;;;;;;8.41;63.73;99188.38;5062217;28;20036;-81
2023/04/14 01:28:17;;;;;;;5.82;1.90;;;;;;;8.47;63.89;99194.66;5061651;28;20040;-81
2023/04/14 01:30:50;;;;;;;4.55;2.30;;;;;;;8.45;63.85;99181.34;5062085;28;20033;-82
2023/04/14 01:33:21;;;;;;;6.60;2.10;;;;;;;8.45;63.76;99188.66;5061333;28;20039;-81
2023/04/14 01:35:51;;;;;;;5.40;1.30;;;;;;;8.47;63.99;99187.31;5061299;28;20364;-81
2023/04/14 01:38:22;;;;;;;4.65;1.90;;;;;;;8.45;64.10;99186.75;5061389;28;20071;-81
2023/04/14 01:40:51;;;;;;;4.80;1.42;;;;;;;8.44;63.88;99190.56;5061013;28;20044;-82
2023/04/14 01:43:23;;;;;;;5.03;1.55;;;;;;;8.41;63.98;99191.91;5060745;28;20063;-81
2023/04/14 01:45:51;;;;;;;4.68;1.58;;;;;;;8.46;63.86;99191.09;5060967;28;20037;-81
2023/04/14 01:48:17;;;;;;;5.03;1.85;;;;;;;8.42;63.29;99192.72;5061371;28;20032;-82
2023/04/14 01:50:43;;;;;;;8.45;3.00;;;;;;;8.49;63.82;99190.59;5061805;28;20044;-82
2023/04/14 01:53:10;;;;;;;6.20;2.17;;;;;;;8.54;63.42;99195.25;5060447;28;20062;-81
2023/04/14 01:55:37;;;;;;;6.10;2.03;;;;;;;8.53;63.20;99201.75;5061048;28;20037;-80
2023/04/14 01:58:05;;;;;;;9.18;2.78;;;;;;;8.42;63.68;99200.84;5061759;28;20032;-81
2023/04/14 02:00:33;;;;;;;8.40;2.05;;;;;;;8.28;64.18;99198.63;5061673;28;20056;-81
2023/04/14 02:03:00;;;;;;;15.07;2.83;;;;;;;8.18;64.29;99202.09;5060742;28;20068;-82
2023/04/14 02:05:26;;;;;;;6.18;2.03;;;;;;;8.15;64.90;99201.81;5061025;28;20028;-81
2023/04/14 02:07:53;;;;;;;8.93;2.17;;;;;;;8.11;64.97;99201.53;5061429;28;20109;-81
2023/04/14 02:10:20;;;;;;;4.53;1.70;;;;;;;8.10;65.25;99193.63;5060641;28;20033;-82
2023/04/14 02:12:47;;;;;;;5.05;1.42;;;;;;;8.09;65.19;99198.25;5061081;28;20028;-82
2023/04/14 02:15:16;;;;;;;7.60;1.60;;;;;;;8.06;65.16;99199.59;5060792;28;20697;-81
2023/04/14 02:17:43;;;;;;;8.55;2.10;;;;;;;8.15;64.76;99190.97;5061277;28;20114;-82
2023/04/14 02:20:09;;;;;;;7.07;1.70;;;;;;;8.18;64.38;99195.84;5060450;28;20029;-81
2023/04/14 02:22:35;;;;;;;3.53;1.55;;;;;;;8.25;64.16;99188.31;5060795;28;20025;-81
2023/04/14 02:25:00;;;;;;;6.63;1.95;;;;;;;8.30;64.15;99187.50;5060048;28;20044;-81
2023/04/14 02:27:32;;;;;;;7.55;3.20;;;;;;;8.34;63.73;99187.81;5060341;28;20025;-81
2023/04/14 02:29:59;;;;;;;4.25;1.45;;;;;;;8.32;63.63;99184.53;5061894;28;20040;-82
2023/04/14 02:32:29;;;;;;;7.00;1.30;;;;;;;8.20;63.92;99193.69;5060227;28;20031;-81
2023/04/14 02:35:03;;;;;;;5.97;1.58;;;;;;;8.21;64.20;99184.47;5060353;28;20089;-80
2023/04/14 02:37:35;;;;;;;7.32;2.75;;;;;;;8.16;64.25;99182.53;5061676;28;20086;-80
2023/04/14 02:40:11;;;;;;;6.97;1.80;;;;;;;8.11;64.52;99190.69;5059664;28;20457;-82
2023/04/14 02:42:40;;;;;;;5.97;1.95;;;;;;;8.04;64.23;99190.88;5060625;28;20016;-81
2023/04/14 02:45:12;;;;;;;4.82;1.58;;;;;;;8.03;64.34;99191.97;5059331;28;20036;-82
2023/04/14 02:47:43;;;;;;;8.57;1.52;;;;;;;8.09;63.49;99197.44;5060207;28;20140;-82
2023/04/14 02:50:12;;;;;;;9.43;2.10;;;;;;;8.12;64.03;99192.28;5060585;28;20036;-81
2023/04/14 02:52:39;;;;;;;6.28;2.25;;;;;;;8.17;63.78;99196.94;5060526;28;20031;-81
2023/04/14 02:55:07;;;;;;;9.10;2.00;;;;;;;8.15;64.09;99199.94;5058760;28;20055;-81
2023/04/14 02:57:33;;;;;;;9.07;2.47;;;;;;;8.06;63.56;99204.19;5060241;28;20044;-82
2023/04/14 02:59:59;;;;;;;7.05;2.58;;;;;;;8.08;64.38;99212.91;5060476;28;20033;-82
2023/04/14 03:02:25;;;;;;;5.55;2.75;;;;;;;8.04;64.19;99211.78;5060231;28;20500;-82
2023/04/14 03:04:52;;;;;;;5.57;1.30;;;;;;;7.99;64.10;99218.03;5059557;28;20025;-82
2023/04/14 03:07:20;;;;;;;6.63;1.75;;;;;;;7.95;63.96;99219.63;5060435;28;20075;-83
2023/04/14 03:09:49;;;;;;;6.63;1.95;;;;;;;7.93;64.32;99221.78;5060538;28;20024;-82
2023/04/14 03:12:16;;;;;;;8.40;2.13;;;;;;;7.87;64.51;99222.81;5059793;28;20040;-81
2023/04/14 03:14:42;;;;;;;6.03;2.22;;;;;;;7.82;64.35;99216.25;5059296;28;20500;-81
2023/04/14 03:17:10;;;;;;;6.35;1.65;;;;;;;7.79;65.18;99219.47;5058446;28;20048;-82
2023/04/14 03:19:39;;;;;;;9.30;2.33;;;;;;;7.87;64.80;99212.75;5059968;28;20052;-82
2023/04/14 03:22:05;;;;;;;8.55;2.78;;;;;;;7.82;64.61;99215.44;5059501;28;20091;-81
2023/04/14 03:24:33;;;;;;;5.22;2.08;;;;;;;7.74;65.06;99219.47;5059337;28;20986;-82
2023/04/14 03:27:05;;;;;;;8.55;2.85;;;;;;;7.62;64.89;99216.91;5058909;28;20033;-82
2023/04/14 03:29:40;;;;;;;7.22;2.03;;;;;;;7.57;64.95;99214.97;5059798;28;20039;-81
2023/04/14 03:32:07;;;;;;;9.60;3.22;;;;;;;7.46;65.59;99219.47;5058613;28;20116;-82
2023/04/14 03:34:36;;;;;;;4.55;2.05;;;;;;;7.33;65.67;99212.59;5059339;28;20202;-83
2023/04/14 03:37:03;;;;;;;5.82;1.48;;;;;;;7.26;65.88;99214.69;5059323;28;20052;-82
2023/04/14 03:39:33;;;;;;;6.57;1.50;;;;;;;7.26;66.36;99213.88;5059890;28;20054;-80
2023/04/14 03:42:00;;;;;;;8.07;2.08;;;;;;;7.21;66.70;99215.47;5059452;28;20024;-81
2023/04/14 03:44:30;;;;;;;5.22;1.65;;;;;;;7.27;66.39;99216.34;5059132;28;21215;-80
2023/04/14 03:46:56;;;;;;;5.65;1.98;;;;;;;7.23;66.45;99215.22;5058886;28;20120;-80
2023/04/14 03:49:23;;;;;;;5.57;2.38;;;;;;;7.21;66.60;99211.94;5059244;28;20753;-81
2023/04/14 03:51:52;;;;;;;5.43;1.40;;;;;;;7.22;66.45;99217.09;5058804;28;20700;-83
2023/04/14 03:54:21;;;;;;;4.78;1.38;;;;;;;7.21;67.16;99212.75;5059215;28;20624;-81
2023/04/14 03:56:50;;;;;;;6.93;2.47;;;;;;;7.22;66.93;99224.44;5058995;28;20067;-82
2023/04/14 03:59:18;;;;;;;8.32;3.13;;;;;;;7.24;67.33;99219.56;5059518;28;20021;-82
2023/04/14 04:01:45;;;;;;;7.47;2.25;;;;;;;7.22;67.47;99233.34;5059562;28;20025;-81
2023/04/14 04:04:11;;;;;;;7.32;2.53;;;;;;;7.25;67.28;99234.75;5058504;28;20269;-82
2023/04/14 04:06:39;;;;;;;9.85;1.85;;;;;;;7.26;67.54;99236.38;5060202;28;20032;-81
2023/04/14 04:09:05;;;;;;;4.35;1.27;;;;;;;7.29;67.80;99233.16;5059244;28;20033;-82
2023/04/14 04:11:32;;;;;;;9.65;1.83;;;;;;;7.32;67.69;99237.28;5058512;28;20024;-81
2023/04/14 04:13:58;;;;;;;5.30;1.20;;;;;;;7.30;67.70;99231.28;5057956;28;20470;-81
2023/04/14 04:16:26;;;;;;;4.45;1.48;;;;;;;7.31;67.52;99235.63;5059453;28;20029;-83
2023/04/14 04:18:52;;;;;;;12.32;3.75;;;;;;;7.31;67.96;99239.16;5062687;28;20096;-81
2023/04/14 04:21:19;;;;;;;8.27;2.45;;;;;;;7.32;67.94;99235.34;5063356;28;20057;-82
2023/04/14 04:23:52;;;;;;;12.55;2.90;;;;;;;7.36;67.50;99236.47;5063150;28;20051;-82
2023/04/14 04:26:18;;;;;;;5.10;1.15;;;;;;;7.40;67.77;99233.28;5062510;28;20029;-82
2023/04/14 04:28:44;;;;;;;6.68;2.35;;;;;;;7.40;67.38;99235.97;5064401;28;20029;-81
2023/04/14 04:31:10;;;;;;;4.22;1.48;;;;;;;7.38;67.21;99235.41;5062603;28;20271;-82
2023/04/14 04:33:36;;;;;;;8.00;1.58;;;;;;;7.34;67.01;99230.50;5063127;28;20032;-81
2023/04/14 04:36:04;;;;;;;5.95;2.33;;;;;;;7.31;67.00;99232.91;5062335;28;20758;-82
2023/04/14 04:38:29;;;;;;;6.35;2.53;;;;;;;7.28;67.05;99239.66;5062879;28;20036;-82
2023/04/14 04:40:54;;;;;;;6.13;1.60;;;;;;;7.23;67.32;99239.59;5062704;28;20032;-82
2023/04/14 04:43:20;;;;;;;10.15;2.67;;;;;;;7.22;67.33;99244.22;5062539;28;20021;-81
2023/04/14 04:46:07;;;;;;;11.05;3.00;;;;;;;7.23;67.63;99239.59;5062302;28;20194;-82
2023/04/14 04:48:32;;;;;;;17.60;3.65;;;;;;;7.24;67.08;99243.97;5062942;28;20033;-82
2023/04/14 04:50:58;;;;;;;5.83;2.40;;;;;;;7.21;67.52;99244.47;5063224;28;20266;-83
2023/04/14 04:53:23;;;;;;;7.77;2.20;;;;;;;7.19;67.37;99238.47;5062789;28;20263;-82
2023/04/14 04:55:48;;;;;;;10.60;2.33;;;;;;;7.16;67.33;99237.09;5063717;28;20267;-82
2023/04/14 04:58:13;;;;;;;9.20;2.87;;;;;;;7.10;67.71;99241.63;5064265;28;20762;-82
2023/04/14 05:00:38;;;;;;;11.37;3.27;;;;;;;7.06;68.00;99235.09;5063122;28;20328;-82
2023/04/14 05:03:04;;;;;;;7.13;2.77;;;;;;;7.06;67.79;99245.94;5062872;28;20268;-82
2023/04/14 05:05:29;;;;;;;8.30;2.72;;;;;;;7.10;68.29;99241.63;5063000;28;20382;-83
2023/04/14 05:07:54;;;;;;;6.38;2.22;;;;;;;7.17;67.96;99246.03;5062603;28;20036;-82
2023/04/14 05:10:20;;;;;;;8.67;2.80;;;;;;;7.20;68.23;99245.56;5062895;28;20120;-83
2023/04/14 05:12:45;;;;;;;6.85;1.83;;;;;;;7.26;68.04;99249.13;5062781;28;20278;-81
2023/04/14 05:15:10;;;;;;;7.30;1.80;;;;;;;7.28;68.00;99249.69;5061798;28;20032;-82
2023/04/14 05:17:36;;;;;;;7.63;2.20;;;;;;;7.30;68.29;99245.63;5062610;28;20160;-81
2023/04/14 05:20:02;;;;;;;6.67;2.30;;;;;;;7.36;67.94;99255.47;5060487;28;20298;-82
2023/04/14 05:22:28;;;;;;;6.47;2.10;;;;;;;7.41;68.68;99253.88;5063015;28;20803;-81
2023/04/14 05:24:53;;;;;;;10.07;2.75;;;;;;;7.48;68.49;99254.50;5061823;28;20040;-82
2023/04/14 05:27:20;;;;;;;6.33;2.90;;;;;;;7.52;68.03;99255.63;5062918;28;20127;-82
2023/04/14 05:29:46;;;;;;;8.32;2.95;;;;;;;7.58;68.02;99257.31;5061557;28;20364;-81
2023/04/14 05:32:13;;;;;;;6.00;2.80;;;;;;;7.65;67.99;99256.25;5061936;28;20154;-82
2023/04/14 05:34:38;;;;;;;7.13;2.53;;;;;;;7.67;67.18;99251.41;5062262;28;20067;-82
2023/04/14 05:37:03;;;;;;;7.72;2.45;;;;;;;7.59;67.11;99253.53;5061630;28;20486;-81
2023/04/14 05:39:29;;;;;;;6.93;2.57;;;;;;;7.70;66.71;99261.75;5061709;28;20051;-82
2023/04/14 05:41:54;;;;;;;8.60;3.67;;;;;;;7.80;66.23;99264.56;5061774;28;20349;-82
2023/04/14 05:44:19;;;;;;;10.43;3.23;;;;;;;7.89;65.76;99256.75;5061455;28;20778;-82
2023/04/14 05:46:45;;;;;;;19.63;3.20;;;;;;;8.00;65.49;99263.06;5061709;28;20249;-81
2023/04/14 05:49:10;;;;;;;14.35;3.45;;;;;;;8.03;65.08;99262.53;5062752;28;20258;-81
2023/04/14 05:51:35;;;;;;;14.10;3.13;;;;;;;8.12;65.25;99262.88;5061607;28;20044;-82
2023/04/14 05:54:01;;;;;;;8.23;2.40;;;;;;;8.21;64.92;99271.38;5061670;28;20032;-82
2023/04/14 05:56:26;;;;;;;12.60;3.27;;;;;;;8.28;64.62;99266.53;5059230;28;20327;-81
2023/04/14 05:58:54;;;;;;;5.32;2.08;;;;;;;8.18;64.72;99263.75;5060718;28;20369;-82
2023/04/14 06:01:19;;;;;;;10.45;3.60;;;;;;;8.06;65.23;99253.91;5059600;28;20037;-79
2023/04/14 06:03:44;;;;;;;5.55;2.40;;;;;;;8.18;64.59;99261.03;5059353;28;20386;-80
2023/04/14 06:06:10;;;;;;;7.18;2.42;;;;;;;8.17;64.92;99260.22;5060212;28;20420;-80
2023/04/14 06:08:35;;;;;;;13.93;3.95;;;;;;;8.25;64.64;99260.81;5060891;28;20043;-80
2023/04/14 06:11:00;;;;;;;7.93;2.77;;;;;;;8.28;64.18;99252.94;5059881;28;20036;-80
2023/04/14 06:13:26;;;;;;;7.73;2.47;;;;;;;8.28;64.10;99258.38;5061027;28;20261;-80
2023/04/14 06:15:51;;;;;;;7.18;2.88;;;;;;;8.35;64.41;99257.34;5060404;28;20972;-79
2023/04/14 06:18:16;;;;;;;7.47;2.88;;;;;;;8.37;64.30;99257.88;5059741;28;20379;-80
2023/04/14 06:20:41;;;;;;;9.30;3.37;;;;;;;8.42;64.15;99252.47;5060313;28;20527;-80
2023/04/14 06:23:07;;;;;;;10.45;2.70;;;;;;;8.47;63.76;99247.09;5055028;28;20281;-79
2023/04/14 06:25:35;;;;;;;6.68;2.72;;;;;;;8.47;63.91;99246.25;5058880;28;20123;-74
2023/04/14 06:28:03;;;;;;;11.73;3.17;;;;;;;8.49;64.12;99244.94;5061172;28;20082;-79
2023/04/14 06:30:31;;;;;;;12.80;2.72;;;;;;;8.56;64.24;99250.13;5060303;28;20168;-82
2023/04/14 06:32:56;;;;;;;14.75;5.65;;;;;;;8.61;64.07;99241.19;5059982;28;20063;-81
2023/04/14 06:35:22;;;;;;;9.75;3.42;;;;;;;8.66;63.88;99245.84;5060197;28;20036;-82
2023/04/14 06:37:47;;;;;;;8.73;3.97;;;;;;;8.63;63.60;99244.47;5061031;28;20033;-81
2023/04/14 06:40:12;;;;;;;7.57;2.70;;;;;;;8.69;63.25;99237.16;5061288;28;20504;-80
2023/04/14 06:42:38;;;;;;;9.18;3.60;;;;;;;8.73;63.48;99249.13;5060474;28;20306;-81
2023/04/14 06:45:03;;;;;;;10.40;4.03;;;;;;;8.79;63.72;99247.28;5060182;28;20160;-81
2023/04/14 06:47:28;;;;;;;4.65;2.35;;;;;;;8.81;63.36;99251.34;5060218;28;20249;-81
2023/04/14 06:49:54;;;;;;;10.73;3.47;;;;;;;8.80;63.45;99238.84;5060899;28;21171;-79
2023/04/14 06:52:19;;;;;;;8.02;3.13;;;;;;;8.88;63.48;99240.22;5060686;28;20260;-80
2023/04/14 06:54:44;;;;;;;11.70;3.30;;;;;;;8.92;63.38;99246.78;5059587;28;20476;-80
2023/04/14 06:57:09;;;;;;;10.30;3.03;;;;;;;8.86;63.16;99243.22;5059648;28;20029;-81
2023/04/14 06:59:35;;;;;;;10.43;3.75;;;;;;;8.90;63.41;99237.25;5061173;28;20131;-80
2023/04/14 07:02:01;;;;;;;8.13;2.80;;;;;;;8.94;62.78;99241.88;5060320;28;21095;-80
2023/04/14 07:04:26;;;;;;;10.38;2.90;;;;;;;8.98;63.09;99234.84;5059347;28;20053;-81
2023/04/14 07:06:51;;;;;;;7.97;2.50;;;;;;;9.02;62.85;99239.72;5058526;28;20481;-81
2023/04/14 07:09:18;;;;;;;10.32;3.58;;;;;;;9.04;62.70;99226.69;5059764;28;20290;-79
2023/04/14 07:11:45;;;;;;;7.57;3.05;;;;;;;9.08;62.42;99234.03;5060222;28;20044;-80
2023/04/14 07:14:10;;;;;;;8.45;4.22;;;;;;;9.21;62.39;99232.69;5059004;28;20040;-81
2023/04/14 07:16:35;;;;;;;13.83;3.97;;;;;;;9.18;62.79;99222.38;5061846;28;20436;-82
2023/04/14 07:19:00;;;;;;;10.23;4.20;;;;;;;9.30;62.55;99216.69;5059922;28;20316;-82
2023/04/14 07:21:26;;;;;;;7.47;2.87;;;;;;;9.31;62.79;99220.22;5059860;28;20272;-82
2023/04/14 07:23:51;;;;;;;10.80;3.13;;;;;;;9.29;62.29;99227.84;5059391;28;20285;-84
2023/04/14 07:26:16;;;;;;;9.23;3.03;;;;;;;9.39;62.24;99222.41;5059935;28;20041;-81
2023/04/14 07:28:42;;;;;;;7.40;3.03;;;;;;;9.42;62.33;99216.41;5058522;28;20277;-80
2023/04/14 07:31:08;;;;;;;8.90;3.00;;;;;;;9.49;62.32;99218.88;5059945;28;20257;-80
2023/04/14 07:33:34;;;;;;;8.02;3.08;;;;;;;9.51;62.19;99219.44;5060119;28;20106;-81
2023/04/14 07:35:59;;;;;;;10.75;2.92;;;;;;;9.53;61.92;99216.44;5059083;28;20029;-79
2023/04/14 07:38:26;;;;;;;6.57;2.42;;;;;;;9.50;62.10;99217.00;5059002;28;20054;-80
2023/04/14 07:40:51;;;;;;;8.10;2.60;;;;;;;9.55;62.46;99212.34;5058539;28;20036;-78
2023/04/14 07:43:17;;;;;;;7.00;2.50;;;;;;;9.58;62.12;99213.69;5059493;28;20473;-80
2023/04/14 07:45:42;;;;;;;8.32;3.10;;;;;;;9.58;61.84;99219.97;5060353;28;20286;-81
2023/04/14 07:48:08;;;;;;;11.00;3.88;;;;;;;9.65;62.30;99218.88;5059006;28;20037;-80
2023/04/14 07:50:33;;;;;;;7.53;2.60;;;;;;;9.73;62.30;99221.06;5059448;28;20110;-80
2023/04/14 07:52:58;;;;;;;10.80;2.23;;;;;;;9.73;62.93;99220.25;5062078;28;20460;-79
2023/04/14 07:55:24;;;;;;;14.05;4.07;;;;;;;9.68;63.28;99221.88;5062991;28;20261;-79
2023/04/14 07:57:50;;;;;;;8.73;4.05;;;;;;;9.80;62.69;99218.06;5064182;28;20033;-80
2023/04/14 08:00:15;;;;;;;9.55;2.35;;;;;;;9.88;62.51;99227.59;5063363;28;20044;-79
2023/04/14 08:02:40;;;;;;;7.25;2.53;;;;;;;9.97;62.26;99230.56;5063277;28;20041;-79
2023/04/14 08:05:06;;;;;;;5.13;1.60;;;;;;;9.95;61.87;99224.56;5062436;28;20072;-79
2023/04/14 08:07:31;;;;;;;5.20;1.77;;;;;;;9.90;61.63;99220.78;5062486;28;20370;-79
2023/04/14 08:09:56;;;;;;;8.02;2.88;;;;;;;9.96;61.28;99231.66;5063382;28;20433;-80
2023/04/14 08:12:23;;;;;;;7.43;1.85;;;;;;;9.97;60.64;99230.56;5063007;28;20041;-80
2023/04/14 08:14:48;;;;;;;4.28;1.73;;;;;;;10.06;60.38;99223.50;5062509;28;20052;-79
2023/04/14 08:17:13;;;;;;;6.70;1.98;;;;;;;10.06;60.69;99223.50;5063721;28;20032;-80
2023/04/14 08:19:39;;;;;;;14.40;2.35;;;;;;;10.14;60.98;99217.50;5063227;28;20477;-81
2023/04/14 08:22:04;;;;;;;9.93;2.47;;;;;;;10.12;59.07;99229.75;5063611;28;20037;-79
2023/04/14 08:24:30;;;;;;;10.43;3.10;;;;;;;10.22;59.66;99227.00;5063515;28;20040;-79
2023/04/14 08:26:55;;;;;;;10.63;2.78;;;;;;;10.28;59.92;99225.09;5063384;28;20040;-80
2023/04/14 08:29:21;;;;;;;7.93;2.05;;;;;;;10.26;60.54;99221.81;5063171;28;20127;-80
2023/04/14 08:31:46;;;;;;;5.85;2.42;;;;;;;10.33;61.05;99222.34;5062352;28;20044;-80
2023/04/14 08:34:12;;;;;;;8.63;2.40;;;;;;;10.37;61.48;99222.63;5061932;28;20080;-80
2023/04/14 08:36:37;;;;;;;7.78;2.63;;;;;;;10.51;60.88;99222.88;5063350;28;20256;-79
2023/04/14 08:39:03;;;;;;;10.13;3.47;;;;;;;10.56;61.71;99209.22;5061944;28;20052;-80
2023/04/14 08:41:32;;;;;;;6.68;2.58;;;;;;;10.66;60.89;99216.53;5062794;28;20295;-79
2023/04/14 08:43:57;;;;;;;8.45;3.15;;;;;;;10.75;60.94;99216.78;5061847;28;20050;-79
2023/04/14 08:46:25;;;;;;;4.13;1.80;;;;;;;10.85;60.28;99216.75;5062224;28;20045;-79
2023/04/14 08:48:57;;;;;;;5.35;1.92;;;;;;;10.89;60.83;99216.16;5062671;28;20277;-79
2023/04/14 08:51:38;;;;;;;7.38;2.25;;;;;;;10.98;57.41;99214.50;5062446;28;20032;-79
2023/04/14 08:54:07;;;;;;;4.28;1.58;;;;;;;11.05;57.42;99215.00;5061526;28;21006;-81
2023/04/14 08:56:35;;;;;;;6.43;2.20;;;;;;;11.09;56.39;99213.34;5062098;28;20036;-79
2023/04/14 08:59:01;;;;;;;17.33;2.08;;;;;;;11.07;55.67;99204.63;5062616;28;20036;-80
2023/04/14 09:01:29;;;;;;;5.45;2.10;;;;;;;11.05;55.47;99209.53;5062854;28;20553;-80
2023/04/14 09:03:55;;;;;;;6.20;1.75;;;;;;;11.03;56.48;99203.56;5060286;28;20051;-80
2023/04/14 09:06:21;;;;;;;11.13;1.55;;;;;;;10.97;54.29;99202.78;5062124;28;20028;-83
2023/04/14 09:08:47;;;;;;;4.53;1.35;;;;;;;10.99;53.81;99205.22;5061992;28;20048;-80
2023/04/14 09:11:14;;;;;;;4.75;1.60;;;;;;;11.17;54.30;99201.00;5060503;28;20128;-79
2023/04/14 09:13:41;;;;;;;5.78;1.80;;;;;;;11.32;53.90;99199.28;5061431;28;20075;-80
2023/04/14 09:16:07;;;;;;;10.60;2.13;;;;;;;11.46;54.72;99196.72;5061421;28;20028;-80
2023/04/14 09:18:32;;;;;;;2.97;1.20;;;;;;;11.55;54.30;99188.75;5061451;28;20052;-79
2023/04/14 09:20:58;;;;;;;7.85;1.98;;;;;;;11.65;53.49;99188.66;5061114;28;20033;-79
2023/04/14 09:23:23;;;;;;;5.90;1.33;;;;;;;11.71;53.30;99186.72;5062312;28;20044;-79
2023/04/14 09:25:49;;;;;;;7.55;1.75;;;;;;;11.67;52.85;99185.66;5061744;28;20342;-79
2023/04/14 09:28:15;;;;;;;8.50;2.13;;;;;;;11.59;52.10;99186.25;5062483;28;20069;-79
2023/04/14 09:30:42;;;;;;;5.88;1.65;;;;;;;11.69;51.90;99188.91;5062136;28;20031;-79
2023/04/14 09:33:17;;;;;;;7.80;1.90;;;;;;;11.73;52.42;99189.97;5061759;28;20442;-79
2023/04/14 09:35:46;;;;;;;4.72;1.75;;;;;;;11.90;52.44;99183.25;5062136;28;20875;-79
2023/04/14 09:38:11;;;;;;;4.22;1.08;;;;;;;12.07;52.39;99179.25;5061330;28;20036;-80
2023/04/14 09:40:37;;;;;;;10.60;2.10;;;;;;;12.21;52.34;99191.16;5061985;28;20387;-78
2023/04/14 09:43:03;;;;;;;16.15;2.38;;;;;;;12.22;51.87;99190.06;5061070;28;20043;-81
2023/04/14 09:45:43;;;;;;;5.55;1.88;;;;;;;12.23;50.52;99180.75;5062170;28;20036;-79
2023/04/14 09:48:09;;;;;;;11.23;2.28;;;;;;;12.32;50.45;99188.31;5061565;28;20044;-80
2023/04/14 09:51:08;;;;;;;7.53;1.65;;;;;;;12.39;50.70;99186.03;5061725;28;20085;-79
2023/04/14 09:53:39;;;;;;;12.27;2.42;;;;;;;12.64;50.89;99178.66;5062593;28;20075;-81
2023/04/14 09:56:06;;;;;;;3.17;1.17;;;;;;;12.88;51.21;99182.44;5061164;28;20041;-81
2023/04/14 09:58:43;;;;;;;7.25;1.85;;;;;;;12.81;50.65;99178.13;5060770;28;20412;-80
2023/04/14 10:01:14;;;;;;;10.95;2.72;;;;;;;12.85;49.85;99178.38;5060777;28;20761;-80
2023/04/14 10:03:44;;;;;;;10.45;2.55;;;;;;;13.17;50.10;99170.53;5061627;28;20051;-80
2023/04/14 10:06:13;;;;;;;10.32;2.95;;;;;;;13.12;49.92;99176.91;5061170;28;20050;-81
2023/04/14 10:08:42;;;;;;;5.75;2.13;;;;;;;12.88;48.74;99166.84;5060862;28;20039;-81
2023/04/14 10:11:34;;;;;;;9.48;2.58;;;;;;;13.08;47.64;99159.44;5060963;28;20044;-79
2023/04/14 10:14:04;;;;;;;28.45;4.80;;;;;;;12.94;50.58;99159.38;5059128;28;20041;-76
2023/04/14 10:16:31;;;;;;;16.92;2.72;;;;;;;12.69;49.30;99156.69;5061780;28;20032;-80
2023/04/14 10:18:57;;;;;;;7.10;1.75;;;;;;;12.51;49.31;99152.81;5061378;28;20029;-79
2023/04/14 10:21:23;;;;;;;15.82;3.00;;;;;;;12.43;49.14;99151.56;5060939;28;20532;-79
2023/04/14 10:23:49;;;;;;;37.65;4.35;;;;;;;12.89;48.98;99140.31;5060660;28;20160;-79
2023/04/14 10:26:15;;;;;;;8.15;2.13;;;;;;;13.30;49.18;99138.88;5061353;28;20309;-79
2023/04/14 10:28:49;;;;;;;5.25;1.75;;;;;;;13.61;47.89;99132.06;5061209;28;20036;-78
2023/04/14 10:31:30;;;;;;;7.32;2.13;;;;;;;13.68;46.28;99124.31;5060939;28;20029;-78
2023/04/14 10:33:56;;;;;;;9.45;1.27;;;;;;;13.71;45.96;99134.63;5060040;28;20111;-75
2023/04/14 10:36:25;;;;;;;9.95;2.20;;;;;;;13.88;46.12;99128.59;5060785;28;20530;-78
2023/04/14 10:39:04;;;;;;;6.20;1.98;;;;;;;13.90;47.23;99133.75;5060811;28;20557;-78
2023/04/14 10:41:50;;;;;;;13.07;3.03;;;;;;;14.24;46.68;99132.56;5061028;28;20035;-80
2023/04/14 10:44:35;;;;;;;5.85;1.60;;;;;;;14.57;44.72;99125.31;5058937;28;20523;-79
2023/04/14 10:47:03;;;;;;;7.88;2.38;;;;;;;14.49;45.22;99115.88;5059447;28;20063;-79
2023/04/14 10:49:31;;;;;;;5.18;1.52;;;;;;;14.38;44.90;99117.22;5056442;28;20134;-80
2023/04/14 10:52:02;;;;;;;12.82;2.58;;;;;;;14.07;43.48;99121.41;5060682;28;20033;-80
2023/04/14 10:54:27;;;;;;;13.65;2.50;;;;;;;13.74;44.58;99120.34;5059987;28;20044;-79
2023/04/14 10:57:11;;;;;;;3.75;1.40;;;;;;;13.77;44.40;99117.00;5060598;28;20386;-80
2023/04/14 10:59:45;;;;;;;5.07;1.40;;;;;;;14.24;44.30;99112.56;5060505;28;21318;-79
2023/04/14 11:02:22;;;;;;;9.38;2.50;;;;;;;14.57;44.17;99108.84;5060996;28;20448;-80
2023/04/14 11:05:10;;;;;;;10.52;1.80;;;;;;;14.62;44.13;99105.19;5059054;28;20044;-80
2023/04/14 11:07:46;;;;;;;75.45;7.90;;;;;;;14.63;43.84;99095.84;5061718;28;20052;-81
2023/04/14 11:10:23;;;;;;;12.98;2.78;;;;;;;14.48;44.04;99097.81;5060122;28;20052;-79
2023/04/14 11:12:59;;;;;;;5.93;1.40;;;;;;;14.45;44.04;99090.19;5060055;28;20032;-80
2023/04/14 11:15:42;;;;;;;5.53;1.35;;;;;;;14.09;43.99;99083.53;5060524;28;20127;-80
2023/04/14 11:18:13;;;;;;;26.05;3.00;;;;;;;14.42;43.12;99088.88;5058293;28;20043;-82
2023/04/14 11:20:41;;;;;;;28.63;5.50;;;;;;;14.38;43.37;99087.06;5059619;28;20032;-80
2023/04/14 11:23:06;;;;;;;11.35;2.53;;;;;;;14.43;43.48;99086.94;5058516;28;20095;-80
2023/04/14 11:25:33;;;;;;;11.75;2.88;;;;;;;14.76;42.56;99085.97;5059636;28;20028;-80
2023/04/14 11:28:01;;;;;;;6.30;1.75;;;;;;;15.10;42.24;99067.34;5058581;28;20033;-79
2023/04/14 11:30:26;;;;;;;20.35;1.70;;;;;;;15.30;40.46;99074.25;5059111;28;20044;-80
2023/04/14 11:32:55;;;;;;;4.70;1.48;;;;;;;15.49;40.11;99071.31;5059098;28;20211;-81
2023/04/14 11:35:23;;;;;;;10.73;2.65;;;;;;;15.73;39.94;99063.81;5058796;28;20036;-81
2023/04/14 11:37:51;;;;;;;6.40;1.67;;;;;;;15.87;40.07;99063.72;5058629;28;20239;-80
2023/04/14 11:40:17;;;;;;;14.85;3.17;;;;;;;15.99;39.57;99060.34;5059219;28;20564;-81